Etusivu
METAR-TAF:

METAR-TAF

Lentoasemat :

Owatonna Degner Regional Airport

Owatonna, Minnesota, Yhdysvallat

Leveyspiiri: 44-07N, Pituuspiiri: 093-15W, korkeus merenpinnasta: 350 m

Tämänhetkinen sää

Tämä raportti tehtiin 10 minuuttia sitten, kello 20.33 UTC
Tuuli 6 kn lännestä/luoteesta
Lämpötila -4°C
Kosteus 68%
Ilmanpaine 1024 hPa
Näkyvyys: 16.1 km
selkeää

METAR: KOWA 262033Z AUTO 29006KT 10SM CLR M04/M09 A3023 RMK AO2

Aika: 14:43 (20:43 UTC)


TAF: puuttuu

Säähavainnot ja -ennusteet yli 4000 lentoasemalta (METAR- ja TAF-raportit).

Käytössä olevat sääasemat on merkitty karttaan keltaisilla ja punaisilla pisteillä.

Aseta hiiri pisteen päälle nähdäksesi sääaseman nimen.

Klikkaa sitten nähdäksesi säähavainnot ja -ennusteet.

Kartan vaihtaminen: klikkaa mustalla rastilla varustettuja vihreitä pisteitä, niin voit zoomata sisään; viivalla varustettua vihreää pistettä, niin voit zoomata ulos tai vihreitä nuolia, niin pääset viereisille kartoille.


METAR-TAF: